Time;durP1;ratioP1;P1;durP2;ratioP2;P2;SDS_P1;SDS_P2;PMS_P1;PMS_P2;Temp;Humidity;BMP_temperature;BMP_pressure;BME280_temperature;BME280_humidity;BME280_pressure;Samples;Min_cycle;Max_cycle;Signal;HPM_P1;HPM_P2
2022/08/06 00:04:29;;;;;;;2.53;1.80;;;;;;;;;;12665582;28;20043;-80
2022/08/06 00:10:31;;;;;;;1.88;1.13;;;;;;;;;;12699350;28;20034;-80
2022/08/06 00:16:32;;;;;;;1.55;1.45;;;;;;;;;;12699449;28;20039;-79
2022/08/06 00:22:34;;;;;;;1.67;1.52;;;;;;;;;;12698731;28;20039;-79
2022/08/06 00:28:36;;;;;;;1.85;1.55;;;;;;;;;;12680372;28;20027;-80
2022/08/06 00:34:38;;;;;;;1.30;1.20;;;;;;;;;;12699362;28;20403;-79
2022/08/06 00:40:40;;;;;;;2.33;1.75;;;;;;;;;;12683651;27;20046;-79
2022/08/06 00:46:43;;;;;;;2.13;1.30;;;;;;;;;;12705132;28;20042;-78
2022/08/06 00:52:45;;;;;;;1.90;1.80;;;;;;;;;;12680341;28;20099;-79
2022/08/06 00:58:48;;;;;;;1.70;1.60;;;;;;;;;;12682069;27;20031;-79
2022/08/06 01:04:49;;;;;;;1.73;1.63;;;;;;;;;;12684750;27;20051;-75
2022/08/06 01:10:51;;;;;;;1.60;1.50;;;;;;;;;;12679194;28;20031;-75
2022/08/06 01:17:02;;;;;;;1.88;1.77;;;;;;;;;;12696086;28;20426;-79
2022/08/06 01:23:11;;;;;;;1.33;1.23;;;;;;;;;;12678687;28;20054;-75
2022/08/06 01:29:20;;;;;;;1.60;1.50;;;;;;;;;;12697744;28;20042;-78
2022/08/06 01:35:27;;;;;;;1.70;1.60;;;;;;;;;;12677407;28;20287;-76
2022/08/06 01:41:39;;;;;;;1.83;1.63;;;;;;;;;;12694320;28;20047;-80
2022/08/06 01:47:43;;;;;;;1.40;1.30;;;;;;;;;;12676161;28;20032;-76
2022/08/06 01:53:45;;;;;;;2.25;1.50;;;;;;;;;;12675675;28;20035;-75
2022/08/06 01:59:48;;;;;;;1.52;1.33;;;;;;;;;;12693883;28;20024;-76
2022/08/06 02:05:51;;;;;;;1.60;1.50;;;;;;;;;;12679616;28;20399;-75
2022/08/06 02:12:03;;;;;;;1.60;1.48;;;;;;;;;;12674580;28;20039;-76
2022/08/06 02:18:06;;;;;;;1.70;1.60;;;;;;;;;;12674422;28;20028;-76
2022/08/06 02:24:08;;;;;;;1.45;1.25;;;;;;;;;;12692518;28;20039;-76
2022/08/06 02:30:11;;;;;;;1.55;1.45;;;;;;;;;;12674236;28;20031;-76
2022/08/06 02:36:19;;;;;;;1.55;1.45;;;;;;;;;;12693331;28;20050;-75
2022/08/06 02:42:23;;;;;;;1.77;1.50;;;;;;;;;;12693423;28;20505;-79
2022/08/06 02:48:30;;;;;;;2.00;1.80;;;;;;;;;;12697399;27;20034;-75
2022/08/06 02:54:35;;;;;;;2.00;1.80;;;;;;;;;;12698782;27;20046;-79
2022/08/06 03:00:39;;;;;;;1.75;1.65;;;;;;;;;;12695049;28;20050;-76
2022/08/06 03:06:43;;;;;;;1.90;1.70;;;;;;;;;;12693970;28;20038;-75
2022/08/06 03:12:46;;;;;;;1.08;1.08;;;;;;;;;;12675917;28;20032;-75
2022/08/06 03:18:48;;;;;;;1.67;1.33;;;;;;;;;;12702116;28;20028;-76
2022/08/06 03:24:51;;;;;;;2.17;1.92;;;;;;;;;;12683360;28;20392;-75
2022/08/06 03:30:52;;;;;;;2.38;1.85;;;;;;;;;;12701421;28;20043;-75
2022/08/06 03:36:54;;;;;;;1.83;1.73;;;;;;;;;;12703387;28;20051;-75
2022/08/06 03:42:56;;;;;;;3.47;2.33;;;;;;;;;;12700509;28;20039;-75
2022/08/06 03:49:00;;;;;;;2.40;2.20;;;;;;;;;;12682208;28;20039;-76
2022/08/06 03:55:03;;;;;;;1.90;1.80;;;;;;;;;;12682038;28;20035;-75
2022/08/06 04:01:08;;;;;;;3.58;3.00;;;;;;;;;;12699958;28;20244;-76
2022/08/06 04:07:10;;;;;;;2.38;2.20;;;;;;;;;;12701142;28;20046;-79
2022/08/06 04:13:16;;;;;;;2.65;2.10;;;;;;;;;;12681230;28;20028;-79
2022/08/06 04:19:19;;;;;;;2.53;2.25;;;;;;;;;;12662576;28;20035;-79
2022/08/06 04:25:21;;;;;;;2.35;2.17;;;;;;;;;;12663098;28;20050;-80
2022/08/06 04:31:24;;;;;;;2.40;2.20;;;;;;;;;;12680419;28;20031;-76
2022/08/06 04:37:26;;;;;;;2.67;2.47;;;;;;;;;;12697758;28;20067;-75
2022/08/06 04:43:27;;;;;;;2.42;2.22;;;;;;;;;;12679603;28;20407;-77
2022/08/06 04:49:29;;;;;;;2.30;2.10;;;;;;;;;;12697447;28;20039;-75
2022/08/06 04:55:31;;;;;;;2.30;2.10;;;;;;;;;;12697445;28;20046;-79
2022/08/06 05:01:33;;;;;;;3.78;3.47;;;;;;;;;;12679006;28;20139;-79
2022/08/06 05:07:35;;;;;;;3.63;3.30;;;;;;;;;;12679252;28;20040;-79
2022/08/06 05:13:38;;;;;;;2.78;2.25;;;;;;;;;;12678328;28;20032;-79
2022/08/06 05:19:48;;;;;;;2.20;2.00;;;;;;;;;;12695925;28;20042;-79
2022/08/06 05:25:51;;;;;;;1.60;1.50;;;;;;;;;;12695847;28;20043;-79
2022/08/06 05:31:58;;;;;;;1.48;1.42;;;;;;;;;;12678339;28;20034;-75
2022/08/06 05:38:00;;;;;;;1.30;1.20;;;;;;;;;;12701702;27;20054;-76
2022/08/06 05:44:02;;;;;;;2.28;1.27;;;;;;;;;;12696606;28;20044;-75
2022/08/06 05:50:17;;;;;;;1.35;1.20;;;;;;;;;;12698919;27;20525;-75
2022/08/06 05:56:25;;;;;;;1.33;1.23;;;;;;;;;;12695518;28;20071;-80
2022/08/06 06:02:28;;;;;;;1.90;1.80;;;;;;;;;;12696634;28;20047;-79
2022/08/06 06:08:30;;;;;;;1.58;1.48;;;;;;;;;;12696539;28;20881;-75
2022/08/06 06:14:42;;;;;;;1.60;1.50;;;;;;;;;;12694303;28;20042;-74
2022/08/06 06:20:44;;;;;;;2.30;1.55;;;;;;;;;;12693011;28;20075;-80
2022/08/06 06:26:49;;;;;;;1.75;1.45;;;;;;;;;;12698150;27;20499;-75
2022/08/06 06:32:59;;;;;;;1.42;1.10;;;;;;;;;;12676582;27;20035;-80
2022/08/06 06:39:07;;;;;;;3.00;1.70;;;;;;;;;;12693933;28;20058;-79
2022/08/06 06:45:13;;;;;;;1.70;1.60;;;;;;;;;;12673102;28;20527;-80
2022/08/06 06:51:20;;;;;;;1.98;1.88;;;;;;;;;;12700084;28;20395;-79
2022/08/06 06:57:30;;;;;;;1.63;1.52;;;;;;;;;;12703634;28;20035;-80
2022/08/06 07:03:33;;;;;;;1.63;1.52;;;;;;;;;;12682276;28;20372;-74
2022/08/06 07:09:36;;;;;;;2.72;1.77;;;;;;;;;;12682173;28;20040;-75
2022/08/06 07:15:38;;;;;;;1.55;1.45;;;;;;;;;;12699517;28;20034;-75
2022/08/06 07:21:41;;;;;;;1.42;1.38;;;;;;;;;;12699120;28;20036;-75
2022/08/06 07:27:46;;;;;;;3.15;1.80;;;;;;;;;;12699105;28;20095;-75
2022/08/06 07:33:48;;;;;;;1.58;1.48;;;;;;;;;;12699024;28;20454;-81
2022/08/06 07:39:51;;;;;;;1.77;1.67;;;;;;;;;;12698895;28;20059;-75
2022/08/06 07:45:55;;;;;;;2.35;1.58;;;;;;;;;;12682135;28;20483;-75
2022/08/06 07:51:57;;;;;;;1.70;1.60;;;;;;;;;;12682502;28;20043;-75
2022/08/06 07:57:59;;;;;;;1.50;1.30;;;;;;;;;;12699298;28;20027;-75
2022/08/06 08:10:22;;;;;;;1.38;1.30;;;;;;;;;;12710665;28;20257;-79
2022/08/06 08:16:26;;;;;;;2.15;1.60;;;;;;;;;;12723503;27;20039;-80
2022/08/06 08:22:28;;;;;;;1.58;1.30;;;;;;;;;;12681240;28;20040;-76
2022/08/06 08:28:31;;;;;;;1.58;1.40;;;;;;;;;;12698543;28;20039;-80
2022/08/06 08:34:33;;;;;;;2.67;1.42;;;;;;;;;;12698047;28;20036;-76
2022/08/06 08:40:36;;;;;;;1.25;1.15;;;;;;;;;;12697814;28;20031;-76
2022/08/06 08:46:39;;;;;;;2.28;1.15;;;;;;;;;;12678986;28;20027;-76
2022/08/06 08:52:44;;;;;;;0.80;0.80;;;;;;;;;;12679126;28;20039;-76
2022/08/06 08:58:45;;;;;;;0.88;0.80;;;;;;;;;;12699764;28;20028;-80
2022/08/06 09:04:48;;;;;;;0.63;0.63;;;;;;;;;;12662853;28;20506;-80
2022/08/06 09:10:50;;;;;;;1.30;1.20;;;;;;;;;;12678297;28;20292;-80
2022/08/06 09:16:52;;;;;;;1.13;1.00;;;;;;;;;;12697254;28;20035;-80
2022/08/06 09:22:54;;;;;;;1.77;1.10;;;;;;;;;;12677788;28;20042;-80
2022/08/06 09:28:56;;;;;;;1.25;0.75;;;;;;;;;;12695311;28;20500;-79
2022/08/06 09:34:58;;;;;;;1.50;1.10;;;;;;;;;;12695489;28;20403;-76
2022/08/06 09:41:03;;;;;;;1.33;0.90;;;;;;;;;;12676925;28;20054;-75
2022/08/06 09:47:07;;;;;;;1.10;1.00;;;;;;;;;;12680774;28;20063;-76
2022/08/06 09:53:11;;;;;;;0.80;0.80;;;;;;;;;;12707189;27;20395;-76
2022/08/06 09:59:13;;;;;;;1.45;0.90;;;;;;;;;;12676911;28;20031;-77
2022/08/06 10:05:15;;;;;;;1.02;0.93;;;;;;;;;;12699120;27;20031;-75
2022/08/06 10:11:37;;;;;;;0.82;0.73;;;;;;;;;;12700028;27;20036;-76
2022/08/06 10:17:45;;;;;;;0.95;0.90;;;;;;;;;;12679081;28;20042;-76
2022/08/06 10:23:49;;;;;;;1.38;1.15;;;;;;;;;;12700819;28;20517;-79
2022/08/06 10:29:54;;;;;;;1.00;1.00;;;;;;;;;;12686943;28;20034;-75
2022/08/06 10:36:00;;;;;;;0.98;0.98;;;;;;;;;;12669556;28;20503;-74
2022/08/06 10:42:02;;;;;;;1.10;1.00;;;;;;;;;;12704115;28;20044;-79
2022/08/06 10:48:04;;;;;;;1.50;1.40;;;;;;;;;;12689288;28;20050;-79
2022/08/06 10:54:06;;;;;;;1.10;1.08;;;;;;;;;;12708157;27;20035;-75
2022/08/06 11:00:08;;;;;;;0.98;0.98;;;;;;;;;;12704238;28;20031;-75
2022/08/06 11:06:26;;;;;;;0.80;0.80;;;;;;;;;;12687293;28;20051;-75
2022/08/06 11:12:46;;;;;;;0.90;0.90;;;;;;;;;;12703625;28;20499;-75
2022/08/06 11:19:07;;;;;;;0.90;0.90;;;;;;;;;;12731241;27;20042;-75
2022/08/06 11:25:08;;;;;;;;;;;;;;;;;;12683893;28;20035;-75
2022/08/06 11:31:29;;;;;;;1.10;1.10;;;;;;;;;;12701354;28;19908;-79
2022/08/06 11:37:44;;;;;;;1.00;1.00;;;;;;;;;;12700524;28;20074;-79
2022/08/06 11:43:48;;;;;;;1.75;1.23;;;;;;;;;;12702142;28;20388;-80
2022/08/06 11:49:50;;;;;;;1.23;1.13;;;;;;;;;;12682603;28;20027;-80
2022/08/06 11:56:05;;;;;;;0.95;0.90;;;;;;;;;;12682633;28;20492;-77
2022/08/06 12:02:08;;;;;;;0.77;0.77;;;;;;;;;;12698575;28;20529;-75
2022/08/06 12:08:20;;;;;;;1.20;1.10;;;;;;;;;;12697174;28;20044;-75
2022/08/06 12:14:37;;;;;;;1.17;1.10;;;;;;;;;;12697150;28;20028;-75
2022/08/06 12:20:39;;;;;;;0.80;0.80;;;;;;;;;;12696801;28;20395;-75
2022/08/06 12:26:41;;;;;;;1.35;1.25;;;;;;;;;;12696413;28;20043;-75
2022/08/06 12:32:42;;;;;;;1.35;1.10;;;;;;;;;;12697046;28;20039;-79
2022/08/06 12:38:53;;;;;;;1.63;1.15;;;;;;;;;;12678375;28;20070;-75
2022/08/06 12:44:55;;;;;;;2.67;1.20;;;;;;;;;;12695060;28;20047;-76
2022/08/06 12:51:11;;;;;;;1.65;1.55;;;;;;;;;;12695234;28;20384;-75
2022/08/06 12:57:26;;;;;;;2.05;1.10;;;;;;;;;;12695035;28;20039;-75
2022/08/06 13:03:29;;;;;;;0.95;0.95;;;;;;;;;;12696194;28;20066;-79
2022/08/06 13:09:31;;;;;;;1.17;1.10;;;;;;;;;;12660036;28;20047;-79
2022/08/06 13:15:33;;;;;;;1.05;0.95;;;;;;;;;;12693866;28;20032;-79
2022/08/06 13:21:39;;;;;;;1.98;1.00;;;;;;;;;;12693663;28;20066;-78
2022/08/06 13:27:41;;;;;;;4.80;0.98;;;;;;;;;;12675436;28;20027;-79
2022/08/06 13:33:43;;;;;;;2.60;1.17;;;;;;;;;;12701367;27;20051;-79
2022/08/06 13:39:52;;;;;;;1.75;0.95;;;;;;;;;;12675259;28;20066;-80
2022/08/06 13:46:04;;;;;;;1.80;0.90;;;;;;;;;;12674971;28;20491;-81
2022/08/06 13:52:07;;;;;;;1.75;0.95;;;;;;;;;;12659396;28;20039;-76
2022/08/06 13:58:08;;;;;;;1.75;0.90;;;;;;;;;;12692038;28;20023;-75
2022/08/06 14:04:10;;;;;;;1.77;0.98;;;;;;;;;;12696181;28;20036;-75
2022/08/06 14:10:12;;;;;;;1.20;1.10;;;;;;;;;;12676129;28;20027;-75
2022/08/06 14:16:14;;;;;;;1.30;0.80;;;;;;;;;;12695039;28;20510;-79
2022/08/06 14:22:16;;;;;;;1.95;0.90;;;;;;;;;;12676618;28;20056;-79
2022/08/06 14:28:20;;;;;;;0.82;0.82;;;;;;;;;;12679593;28;20082;-80
2022/08/06 14:34:21;;;;;;;1.30;1.20;;;;;;;;;;12659145;28;20494;-75
2022/08/06 14:46:44;;;;;;;5.55;2.20;;;;;;;;;;12691052;28;20055;-75
2022/08/06 14:52:46;;;;;;;3.75;1.80;;;;;;;;;;12694814;27;20062;-76
2022/08/06 14:58:49;;;;;;;4.97;1.92;;;;;;;;;;12690978;28;20042;-80
2022/08/06 15:04:51;;;;;;;4.88;1.65;;;;;;;;;;12683407;27;20028;-80
2022/08/06 15:10:53;;;;;;;2.65;2.00;;;;;;;;;;12699932;28;20032;-76
2022/08/06 15:16:54;;;;;;;2.22;2.03;;;;;;;;;;12715385;27;20028;-75
2022/08/06 15:22:56;;;;;;;1.73;1.63;;;;;;;;;;12684793;28;20044;-80
2022/08/06 15:29:00;;;;;;;4.65;1.88;;;;;;;;;;12685011;28;20043;-76
2022/08/06 15:35:01;;;;;;;2.10;1.63;;;;;;;;;;12702757;28;20062;-76
2022/08/06 15:41:04;;;;;;;2.55;1.67;;;;;;;;;;12703820;28;20035;-76
2022/08/06 15:47:06;;;;;;;2.55;1.40;;;;;;;;;;12666183;28;20043;-80
2022/08/06 15:53:07;;;;;;;1.77;1.55;;;;;;;;;;12682700;28;20360;-76
2022/08/06 15:59:09;;;;;;;1.92;1.10;;;;;;;;;;12684448;28;20039;-79
2022/08/06 16:05:11;;;;;;;2.30;1.27;;;;;;;;;;12682559;28;20044;-79
2022/08/06 16:11:13;;;;;;;2.67;1.13;;;;;;;;;;12699371;28;20039;-79
2022/08/06 16:17:14;;;;;;;4.13;1.55;;;;;;;;;;12699289;28;20035;-80
2022/08/06 16:23:17;;;;;;;2.00;1.30;;;;;;;;;;12699919;28;20066;-76
2022/08/06 16:29:19;;;;;;;1.10;1.00;;;;;;;;;;12698688;28;20039;-76
2022/08/06 16:35:21;;;;;;;2.17;1.00;;;;;;;;;;12698384;28;20062;-80
2022/08/06 16:41:22;;;;;;;1.45;1.25;;;;;;;;;;12698236;28;20032;-80
2022/08/06 16:47:25;;;;;;;2.17;1.27;;;;;;;;;;12697858;28;20032;-79
2022/08/06 16:53:27;;;;;;;1.50;1.40;;;;;;;;;;12697099;28;20047;-80
2022/08/06 16:59:28;;;;;;;1.08;1.00;;;;;;;;;;12697289;28;20032;-80
2022/08/06 17:05:31;;;;;;;0.80;0.80;;;;;;;;;;12697172;28;20173;-81
2022/08/06 17:11:33;;;;;;;1.55;0.98;;;;;;;;;;12697953;28;20035;-80
2022/08/06 17:17:35;;;;;;;1.00;0.93;;;;;;;;;;12697211;28;20395;-75
2022/08/06 17:23:36;;;;;;;1.55;1.20;;;;;;;;;;12695417;28;20046;-79
2022/08/06 17:29:38;;;;;;;0.90;0.90;;;;;;;;;;12678265;28;20054;-75
2022/08/06 17:35:40;;;;;;;0.65;0.65;;;;;;;;;;12695114;28;20051;-76
2022/08/06 17:41:42;;;;;;;0.70;0.70;;;;;;;;;;12677829;28;20055;-75
2022/08/06 17:47:44;;;;;;;2.78;0.93;;;;;;;;;;12703915;27;20039;-75
2022/08/06 17:53:46;;;;;;;0.82;0.80;;;;;;;;;;12696188;28;20046;-76
2022/08/06 17:59:48;;;;;;;2.05;1.30;;;;;;;;;;12677609;28;20027;-76
2022/08/06 18:05:50;;;;;;;0.88;0.73;;;;;;;;;;12696012;28;20053;-80
2022/08/06 18:11:52;;;;;;;0.95;0.70;;;;;;;;;;12696070;28;20032;-79
2022/08/06 18:17:54;;;;;;;1.27;1.00;;;;;;;;;;12678952;28;20035;-79
2022/08/06 18:23:56;;;;;;;0.90;0.85;;;;;;;;;;12678918;28;20035;-75
2022/08/06 18:29:58;;;;;;;0.80;0.80;;;;;;;;;;12695706;28;20027;-74
2022/08/06 18:36:00;;;;;;;1.25;0.93;;;;;;;;;;12659510;28;20054;-79
2022/08/06 18:42:02;;;;;;;1.50;1.00;;;;;;;;;;12675850;28;20050;-80
2022/08/06 18:48:05;;;;;;;1.10;0.90;;;;;;;;;;12685334;28;20043;-80
2022/08/06 18:54:07;;;;;;;0.95;0.88;;;;;;;;;;12668442;28;20042;-79
2022/08/06 19:00:10;;;;;;;1.58;1.10;;;;;;;;;;12703761;28;20043;-74
2022/08/06 19:06:12;;;;;;;1.67;1.23;;;;;;;;;;12703464;28;20043;-75
2022/08/06 19:12:14;;;;;;;1.48;1.05;;;;;;;;;;12684296;28;20399;-76
2022/08/06 19:18:16;;;;;;;1.63;0.90;;;;;;;;;;12705600;28;20031;-73
2022/08/06 19:24:18;;;;;;;1.00;1.00;;;;;;;;;;12701992;28;20035;-75
2022/08/06 19:30:19;;;;;;;1.17;1.08;;;;;;;;;;12701954;28;20458;-76
2022/08/06 19:36:21;;;;;;;2.17;0.93;;;;;;;;;;12701947;28;20483;-75
2022/08/06 19:42:23;;;;;;;0.93;0.90;;;;;;;;;;12701756;28;20046;-76
2022/08/06 19:48:25;;;;;;;1.20;1.10;;;;;;;;;;12682840;28;20031;-76
2022/08/06 19:54:26;;;;;;;1.00;1.00;;;;;;;;;;12699495;28;20063;-76
2022/08/06 20:00:28;;;;;;;1.38;0.90;;;;;;;;;;12700177;28;20035;-80
2022/08/06 20:06:30;;;;;;;1.38;1.13;;;;;;;;;;12683358;28;20385;-80
2022/08/06 20:12:33;;;;;;;1.70;1.45;;;;;;;;;;12682924;28;20035;-80
2022/08/06 20:18:35;;;;;;;1.65;1.40;;;;;;;;;;12684757;28;20039;-76
2022/08/06 20:24:36;;;;;;;1.13;0.68;;;;;;;;;;12699269;28;20314;-81
2022/08/06 20:30:39;;;;;;;1.83;1.02;;;;;;;;;;12664650;28;20046;-81
2022/08/06 20:36:41;;;;;;;1.13;1.00;;;;;;;;;;12680286;28;20055;-74
2022/08/06 20:42:43;;;;;;;3.20;1.30;;;;;;;;;;12662739;28;20044;-81
2022/08/06 20:48:45;;;;;;;2.05;1.10;;;;;;;;;;12663704;28;20498;-75
2022/08/06 20:54:47;;;;;;;1.30;1.20;;;;;;;;;;12661417;28;20047;-75
2022/08/06 21:00:49;;;;;;;0.70;0.70;;;;;;;;;;12678241;28;20487;-76
2022/08/06 21:06:50;;;;;;;1.35;0.68;;;;;;;;;;12697293;28;20067;-80
2022/08/06 21:12:52;;;;;;;0.70;0.60;;;;;;;;;;12679669;28;20372;-80
2022/08/06 21:18:54;;;;;;;0.73;0.73;;;;;;;;;;12678407;28;20034;-81
2022/08/06 21:24:56;;;;;;;0.95;0.90;;;;;;;;;;12660346;28;20495;-80
2022/08/06 21:30:58;;;;;;;0.60;0.50;;;;;;;;;;12695508;28;20023;-80
2022/08/06 21:37:00;;;;;;;0.70;0.70;;;;;;;;;;12695733;28;20071;-80
2022/08/06 21:43:02;;;;;;;0.60;0.60;;;;;;;;;;12696140;28;20031;-80
2022/08/06 21:49:04;;;;;;;0.63;0.63;;;;;;;;;;12696338;28;20031;-79
2022/08/06 21:55:07;;;;;;;0.70;0.70;;;;;;;;;;12694846;28;20057;-75
2022/08/06 22:01:09;;;;;;;0.85;0.85;;;;;;;;;;12676339;28;20388;-75
2022/08/06 22:07:11;;;;;;;0.98;0.95;;;;;;;;;;12695717;28;20044;-79
2022/08/06 22:13:13;;;;;;;1.05;1.05;;;;;;;;;;12676631;28;20479;-79
2022/08/06 22:19:16;;;;;;;0.60;0.60;;;;;;;;;;12681332;28;20395;-74
2022/08/06 22:25:17;;;;;;;0.70;0.70;;;;;;;;;;12687278;28;20047;-75
2022/08/06 22:31:19;;;;;;;0.73;0.73;;;;;;;;;;12670223;28;20043;-75
2022/08/06 22:37:21;;;;;;;0.85;0.55;;;;;;;;;;12704106;28;20063;-76
2022/08/06 22:43:23;;;;;;;0.70;0.70;;;;;;;;;;12703757;28;20046;-75
2022/08/06 22:49:25;;;;;;;0.68;0.50;;;;;;;;;;12702908;28;20043;-76
2022/08/06 22:55:27;;;;;;;1.33;0.60;;;;;;;;;;12684394;28;20038;-75
2022/08/06 23:01:30;;;;;;;0.65;0.65;;;;;;;;;;12703263;28;20390;-76
2022/08/06 23:07:31;;;;;;;1.17;0.70;;;;;;;;;;12703468;28;20427;-80
2022/08/06 23:13:34;;;;;;;1.33;0.80;;;;;;;;;;12702648;28;20034;-79
2022/08/06 23:19:36;;;;;;;1.13;0.85;;;;;;;;;;12701968;28;20044;-75
2022/08/06 23:25:38;;;;;;;0.73;0.63;;;;;;;;;;12701875;28;20039;-75
2022/08/06 23:31:39;;;;;;;;;;;;;;;;;;12702040;28;20043;-75
2022/08/06 23:37:41;;;;;;;0.70;0.70;;;;;;;;;;12701586;28;19920;-80
2022/08/06 23:43:43;;;;;;;;;;;;;;;;;;12682865;28;20047;-80
2022/08/06 23:49:44;;;;;;;0.50;0.50;;;;;;;;;;12701341;28;19915;-79
2022/08/06 23:55:46;;;;;;;0.40;0.40;;;;;;;;;;12700335;28;20042;-79
